Time;durP1;ratioP1;P1;durP2;ratioP2;P2;SDS_P1;SDS_P2;PMS_P1;PMS_P2;Temp;Humidity;BMP_temperature;BMP_pressure;BME280_temperature;BME280_humidity;BME280_pressure;Samples;Min_cycle;Max_cycle;Signal;HPM_P1;HPM_P2
2022/03/17 00:02:06;;;;;;;39.42;31.10;;;7.20;67.40;;;5.62;69.49;96631.25;4969197;28;20027;-69
2022/03/17 00:04:32;;;;;;;40.92;31.27;;;7.30;67.30;;;5.60;69.85;96633.19;4948957;28;20491;-69
2022/03/17 00:06:58;;;;;;;38.13;29.55;;;7.20;67.50;;;5.59;69.46;96632.38;4970234;28;20034;-69
2022/03/17 00:09:24;;;;;;;38.05;30.13;;;7.10;67.50;;;5.57;69.78;96626.47;4981806;28;20551;-69
2022/03/17 00:11:51;;;;;;;43.83;32.15;;;7.10;67.70;;;5.58;70.26;96630.72;4972816;28;20046;-69
2022/03/17 00:14:17;;;;;;;39.40;31.10;;;7.10;67.80;;;5.54;69.66;96627.59;4968292;28;20130;-68
2022/03/17 00:16:42;;;;;;;38.88;30.80;;;7.10;67.80;;;5.53;70.81;96636.38;4969724;28;20039;-69
2022/03/17 00:19:09;;;;;;;37.63;30.20;;;7.10;67.80;;;5.53;69.99;96622.53;4968365;28;20471;-69
2022/03/17 00:21:36;;;;;;;42.22;31.70;;;7.20;67.80;;;5.54;69.99;96624.16;4973042;28;20447;-69
2022/03/17 00:24:02;;;;;;;40.65;30.83;;;7.20;67.80;;;5.54;70.00;96627.59;4970181;28;20080;-68
2022/03/17 00:26:28;;;;;;;42.60;31.90;;;7.20;67.70;;;5.53;70.56;96631.16;4965413;28;20035;-68
2022/03/17 00:28:54;;;;;;;38.78;31.45;;;7.10;67.80;;;5.52;69.96;96626.09;4965145;28;20588;-69
2022/03/17 00:31:20;;;;;;;38.45;30.25;;;7.10;68.00;;;5.50;70.66;96631.47;4970725;28;20146;-69
2022/03/17 00:33:46;;;;;;;39.97;30.90;;;7.10;68.00;;;5.52;69.94;96631.31;4971301;28;20153;-69
2022/03/17 00:36:11;;;;;;;42.63;32.30;;;7.20;67.90;;;5.52;69.82;96621.69;4967962;28;20046;-69
2022/03/17 00:38:37;;;;;;;39.35;31.33;;;7.20;67.90;;;5.51;70.17;96622.66;4964435;28;20105;-68
2022/03/17 00:41:03;;;;;;;39.72;30.40;;;7.10;67.90;;;5.51;70.05;96629.69;4954918;28;20035;-68
2022/03/17 00:43:29;;;;;;;39.75;31.73;;;7.20;68.10;;;5.50;71.17;96638.47;4980914;28;20073;-69
2022/03/17 00:45:54;;;;;;;40.45;31.10;;;7.20;68.20;;;5.49;70.90;96636.84;4953104;28;20101;-69
2022/03/17 00:48:20;;;;;;;40.25;30.98;;;7.10;68.00;;;5.50;70.18;96628.84;4969989;28;20141;-69
2022/03/17 00:50:46;;;;;;;42.55;31.52;;;7.20;68.00;;;5.49;70.17;96632.44;4969783;28;20050;-69
2022/03/17 00:53:12;;;;;;;40.28;30.70;;;7.10;68.10;;;5.49;70.42;96626.41;4966809;28;20030;-69
2022/03/17 00:55:38;;;;;;;40.65;32.03;;;7.10;68.10;;;5.46;70.61;96622.28;4975358;28;20422;-68
2022/03/17 00:58:04;;;;;;;42.35;32.10;;;7.10;68.20;;;5.44;71.42;96619.00;4968077;28;20039;-68
2022/03/17 01:00:29;;;;;;;38.95;31.17;;;7.10;68.30;;;5.43;71.33;96616.50;4968861;28;20602;-69
2022/03/17 01:02:56;;;;;;;43.15;32.20;;;7.10;68.30;;;5.42;71.11;96622.69;4954280;28;20406;-68
2022/03/17 01:05:22;;;;;;;40.90;32.00;;;7.10;68.30;;;5.37;71.42;96623.13;4969660;28;20031;-69
2022/03/17 01:07:49;;;;;;;42.67;32.10;;;7.10;68.50;;;5.39;71.17;96615.16;4953984;28;20109;-69
2022/03/17 01:10:16;;;;;;;41.53;31.48;;;7.00;68.50;;;5.38;71.47;96614.34;4981760;28;20125;-70
2022/03/17 01:12:46;;;;;;;41.97;31.35;;;7.00;68.50;;;5.36;71.57;96611.06;4951712;28;20066;-68
2022/03/17 01:15:12;;;;;;;41.75;31.48;;;7.00;68.70;;;5.35;71.66;96609.41;4936828;28;20038;-69
2022/03/17 01:17:38;;;;;;;42.70;32.83;;;7.00;68.70;;;5.36;71.74;96615.44;4982566;28;20039;-69
2022/03/17 01:20:05;;;;;;;41.45;32.10;;;7.00;68.70;;;5.35;71.91;96608.59;4953079;28;20082;-70
2022/03/17 01:22:32;;;;;;;40.40;31.67;;;7.00;68.80;;;5.32;70.94;96611.50;4964703;28;20031;-69
2022/03/17 01:24:57;;;;;;;40.90;32.80;;;7.00;68.80;;;5.31;71.41;96602.84;4953550;28;20510;-69
2022/03/17 01:27:23;;;;;;;44.47;32.83;;;7.00;68.80;;;5.30;72.09;96616.84;4968771;28;20046;-69
2022/03/17 01:29:53;;;;;;;42.00;32.00;;;7.00;69.00;;;5.29;72.30;96610.00;4970360;28;20142;-69
2022/03/17 01:32:20;;;;;;;40.45;30.83;;;7.00;68.80;;;5.27;nan;96601.50;4953099;28;20077;-70
2022/03/17 01:34:46;;;;;;;44.58;32.47;;;7.00;68.80;;;5.25;71.45;96602.59;4952285;28;20141;-69
2022/03/17 01:37:11;;;;;;;39.47;30.67;;;6.90;68.90;;;5.23;72.22;96594.94;4965443;28;20034;-69
2022/03/17 01:39:37;;;;;;;43.05;31.33;;;6.90;68.90;;;5.23;71.44;96606.19;4967993;28;20031;-70
2022/03/17 01:42:05;;;;;;;38.58;30.15;;;7.00;68.80;;;5.20;72.48;96600.41;4980371;28;20046;-69
2022/03/17 01:44:31;;;;;;;38.22;29.35;;;6.90;68.70;;;5.18;71.74;96591.91;4968759;28;20041;-70
2022/03/17 01:49:41;;;;;;;40.92;31.73;;;6.90;68.60;;;5.19;72.04;96588.34;4969014;28;20045;-69
2022/03/17 01:52:07;;;;;;;41.65;30.83;;;6.90;68.70;;;5.16;72.14;96588.63;4952857;28;20035;-70
2022/03/17 01:54:34;;;;;;;40.25;29.80;;;6.90;68.70;;;5.16;72.04;96592.06;4977515;28;20541;-69
2022/03/17 01:57:00;;;;;;;41.15;30.98;;;6.90;68.60;;;5.14;71.47;96580.13;4984975;28;20074;-67
2022/03/17 01:59:26;;;;;;;39.47;30.35;;;6.80;68.70;;;5.12;71.35;96576.84;4965774;28;20066;-68
2022/03/17 02:01:53;;;;;;;40.75;30.83;;;6.90;68.80;;;5.13;72.56;96578.47;4966119;28;20114;-69
2022/03/17 02:04:20;;;;;;;40.72;30.75;;;6.80;68.80;;;5.11;71.31;96575.19;4965960;28;20031;-69
2022/03/17 02:06:45;;;;;;;37.75;29.63;;;6.80;68.90;;;5.09;72.07;96575.34;4980207;28;20553;-70
2022/03/17 02:09:11;;;;;;;38.80;30.73;;;6.80;68.90;;;5.07;71.61;96568.63;4967669;28;20063;-69
2022/03/17 02:14:26;;;;;;;42.05;32.35;;;6.80;68.80;;;5.05;72.01;96560.97;4951890;28;20435;-70
2022/03/17 02:16:52;;;;;;;43.33;30.65;;;6.70;69.20;;;5.05;72.28;96565.34;4967234;28;20047;-69
2022/03/17 02:19:20;;;;;;;37.60;30.75;;;6.80;69.20;;;5.06;71.82;96562.59;4965688;28;20499;-70
2022/03/17 02:21:45;;;;;;;40.33;31.23;;;6.70;69.30;;;5.04;72.70;96564.53;4963188;28;20031;-68
2022/03/17 02:26:58;;;;;;;44.05;32.88;;;6.80;69.30;;;5.03;72.19;96546.44;4969038;28;20113;-68
2022/03/17 02:29:25;;;;;;;41.53;32.40;;;6.70;69.50;;;5.01;72.06;96548.34;4980474;28;20419;-69
2022/03/17 02:31:51;;;;;;;40.60;31.77;;;6.70;69.50;;;4.98;72.40;96553.81;4967760;28;20038;-70
2022/03/17 02:34:17;;;;;;;41.60;32.65;;;6.70;69.70;;;4.97;72.87;96555.63;4949623;28;20035;-70
2022/03/17 02:36:48;;;;;;;40.80;32.38;;;6.60;69.90;;;4.96;73.27;96553.97;4960050;28;20043;-69
2022/03/17 02:39:15;;;;;;;43.95;32.28;;;6.60;69.90;;;4.96;72.22;96556.59;4951095;28;20043;-69
2022/03/17 02:41:41;;;;;;;43.38;32.50;;;6.60;70.00;;;4.93;72.33;96560.31;4979168;28;20043;-69
2022/03/17 02:44:06;;;;;;;42.80;33.10;;;6.60;70.10;;;4.95;72.67;96569.75;4969054;28;20125;-69
2022/03/17 02:46:32;;;;;;;42.10;32.97;;;6.60;70.00;;;4.96;73.14;96576.63;4967432;28;20122;-69
2022/03/17 02:48:58;;;;;;;42.85;32.80;;;6.70;69.80;;;4.93;73.54;96573.34;4952353;28;20126;-69
2022/03/17 02:51:24;;;;;;;43.55;33.10;;;6.70;70.00;;;4.92;73.35;96576.91;4965999;28;20027;-70
2022/03/17 02:53:49;;;;;;;44.28;33.33;;;6.70;70.00;;;4.92;73.41;96583.91;4966378;28;20152;-71
2022/03/17 02:56:15;;;;;;;44.75;33.75;;;6.60;70.10;;;4.92;72.75;96586.50;4964956;28;20034;-70
2022/03/17 02:58:41;;;;;;;43.40;33.17;;;6.70;70.20;;;4.92;73.45;96576.91;4966499;28;20086;-70
2022/03/17 03:01:06;;;;;;;44.88;33.95;;;6.60;70.00;;;4.93;72.63;96583.75;4950617;28;20573;-71
2022/03/17 03:03:32;;;;;;;45.78;35.05;;;6.70;70.00;;;4.92;72.71;96587.34;4958584;28;20495;-69
2022/03/17 03:05:58;;;;;;;42.28;33.05;;;6.70;70.10;;;4.91;72.98;96570.03;4978712;28;20038;-68
2022/03/17 03:08:24;;;;;;;46.03;34.75;;;6.70;70.20;;;4.92;73.51;96581.28;4967996;28;20866;-69
2022/03/17 03:10:49;;;;;;;44.60;33.75;;;6.70;70.30;;;4.89;73.34;96577.19;4968965;28;20074;-69
2022/03/17 03:13:15;;;;;;;45.17;34.83;;;6.60;70.30;;;4.91;73.46;96584.88;4967772;28;20499;-69
2022/03/17 03:15:42;;;;;;;44.72;34.58;;;6.70;70.40;;;4.90;73.76;96573.63;4965649;28;20054;-70
2022/03/17 03:18:07;;;;;;;45.50;34.38;;;6.60;70.30;;;4.89;73.56;96582.41;4950524;28;20502;-70
2022/03/17 03:20:33;;;;;;;43.53;33.72;;;6.60;70.50;;;4.89;73.90;96574.59;4962767;28;20035;-70
2022/03/17 03:22:59;;;;;;;52.58;38.95;;;6.70;70.40;;;4.90;73.80;96573.63;4966549;28;20035;-70
2022/03/17 03:25:25;;;;;;;47.45;35.03;;;6.60;70.40;;;4.90;73.71;96573.63;4963842;28;20031;-69
2022/03/17 03:27:50;;;;;;;47.85;34.88;;;6.70;70.50;;;4.89;73.55;96565.94;4980010;28;20125;-69
2022/03/17 03:30:16;;;;;;;48.45;35.42;;;6.60;70.50;;;4.91;73.50;96574.44;4935395;28;20043;-69
2022/03/17 03:32:44;;;;;;;45.47;35.80;;;6.60;70.70;;;4.90;74.15;96572.81;4966943;28;20030;-69
2022/03/17 03:37:55;;;;;;;47.60;37.45;;;6.70;71.20;;;4.90;74.18;96593.66;4968323;28;20045;-69
2022/03/17 03:40:21;;;;;;;46.03;35.60;;;6.70;70.70;;;4.90;73.93;96598.88;4962467;28;20043;-69
2022/03/17 03:42:47;;;;;;;47.92;35.67;;;6.70;70.70;;;4.92;73.73;96602.16;4959905;28;20554;-69
2022/03/17 03:45:13;;;;;;;46.78;35.78;;;6.60;70.60;;;4.90;74.46;96604.91;4942565;28;20053;-69
2022/03/17 03:47:39;;;;;;;52.70;38.95;;;6.70;70.70;;;4.91;74.07;96605.72;4967321;28;20030;-70
2022/03/17 03:50:05;;;;;;;51.63;38.03;;;6.70;71.10;;;4.87;74.58;96599.97;4950305;28;20525;-70
2022/03/17 03:52:31;;;;;;;50.40;38.08;;;6.60;71.10;;;4.88;74.42;96596.41;4963675;28;20114;-69
2022/03/17 03:54:57;;;;;;;52.88;38.90;;;6.60;71.10;;;4.87;75.19;96597.38;4949922;28;20057;-70
2022/03/17 03:57:22;;;;;;;51.75;38.97;;;6.60;71.20;;;4.86;74.65;96603.53;4967089;28;20155;-70
2022/03/17 03:59:48;;;;;;;51.38;38.50;;;6.60;71.20;;;4.87;74.90;96609.59;4978418;28;20086;-68
2022/03/17 04:02:14;;;;;;;49.63;37.17;;;6.70;71.30;;;4.88;74.54;96604.22;4932397;28;20054;-69
2022/03/17 04:04:40;;;;;;;57.95;42.50;;;6.70;71.30;;;4.87;74.88;96601.75;4960154;28;20042;-70
2022/03/17 04:07:08;;;;;;;56.92;42.88;;;6.70;71.40;;;4.89;75.61;96608.47;4934883;28;20042;-69
2022/03/17 04:09:40;;;;;;;57.17;43.72;;;6.70;71.40;;;4.90;75.63;96594.47;4965051;28;20042;-69
2022/03/17 04:12:10;;;;;;;53.47;38.35;;;6.70;71.20;;;4.90;75.82;96599.69;4977195;28;20045;-69
2022/03/17 04:14:36;;;;;;;47.88;36.92;;;6.70;71.10;;;4.89;74.84;96600.66;4965420;28;20031;-68
2022/03/17 04:17:02;;;;;;;48.88;36.42;;;6.70;71.00;;;4.85;75.12;96596.69;4963749;28;20077;-69
2022/03/17 04:19:28;;;;;;;46.63;36.40;;;6.70;71.00;;;4.83;74.99;96598.63;4947021;28;20037;-68
2022/03/17 04:21:54;;;;;;;47.13;36.63;;;6.60;71.20;;;4.82;75.15;96601.38;4965677;28;20044;-68
2022/03/17 04:24:20;;;;;;;49.22;38.40;;;6.60;71.60;;;4.80;75.17;96606.72;4968246;28;20379;-69
2022/03/17 04:26:46;;;;;;;49.42;38.15;;;6.60;71.60;;;4.78;75.45;96616.47;4967130;28;20173;-69
2022/03/17 04:29:12;;;;;;;52.25;40.17;;;6.60;71.80;;;4.78;75.85;96613.03;4952695;28;20034;-69
2022/03/17 04:31:38;;;;;;;54.20;41.15;;;6.60;72.00;;;4.76;76.21;96607.97;4982378;28;20031;-68
2022/03/17 04:34:04;;;;;;;55.83;42.15;;;6.60;72.30;;;4.74;76.29;96611.66;4953488;28;20093;-71
2022/03/17 04:36:33;;;;;;;53.97;41.88;;;6.60;72.20;;;4.72;76.18;96624.81;4984283;28;20031;-66
2022/03/17 04:39:00;;;;;;;54.40;40.28;;;6.60;72.10;;;4.72;75.75;96626.59;4971539;28;20177;-70
2022/03/17 04:41:26;;;;;;;49.72;37.13;;;6.50;72.00;;;4.67;75.59;96619.22;4961791;28;20151;-69
2022/03/17 04:43:52;;;;;;;53.45;39.00;;;6.50;72.10;;;4.64;75.59;96619.50;4956607;28;20038;-70
2022/03/17 04:46:18;;;;;;;52.63;39.17;;;6.40;72.30;;;4.60;76.66;96625.94;4979975;28;20089;-68
2022/03/17 04:48:43;;;;;;;51.85;38.85;;;6.40;72.50;;;4.57;76.29;96631.44;4982137;28;20042;-69
2022/03/17 04:51:09;;;;;;;55.47;41.05;;;6.40;72.60;;;4.54;76.49;96626.53;4965327;28;20474;-69
2022/03/17 04:53:35;;;;;;;52.75;40.10;;;6.30;72.80;;;4.52;76.69;96636.22;4961787;28;20502;-68
2022/03/17 04:56:03;;;;;;;55.00;40.20;;;6.30;72.90;;;4.50;76.97;96630.34;4973227;28;20501;-69
2022/03/17 04:58:31;;;;;;;51.63;38.90;;;6.30;72.80;;;4.49;76.69;96626.09;4949246;28;20124;-69
2022/03/17 05:00:57;;;;;;;50.53;38.95;;;6.20;72.80;;;4.49;76.90;96633.91;4980001;28;20034;-69
2022/03/17 05:03:23;;;;;;;51.63;37.53;;;6.30;72.90;;;4.48;76.64;96640.06;4966742;28;20039;-70
2022/03/17 05:05:49;;;;;;;52.47;39.22;;;6.30;72.80;;;4.44;76.60;96638.72;4978700;28;20114;-69
2022/03/17 05:08:14;;;;;;;54.97;39.20;;;6.30;73.00;;;4.41;77.30;96633.78;4953024;28;20070;-70
2022/03/17 05:10:44;;;;;;;56.72;40.33;;;6.20;73.20;;;4.42;76.86;96635.41;4968949;28;20117;-70
2022/03/17 05:13:10;;;;;;;53.83;40.08;;;6.20;73.40;;;4.39;77.05;96635.69;4959452;28;20142;-69
2022/03/17 05:15:36;;;;;;;52.15;38.67;;;6.10;73.40;;;4.37;77.31;96629.81;4961030;28;20034;-68
2022/03/17 05:18:03;;;;;;;58.22;39.40;;;6.20;73.90;;;4.36;77.24;96630.78;4968827;28;20035;-69
2022/03/17 05:20:29;;;;;;;55.28;40.50;;;6.10;74.00;;;4.37;77.35;96645.44;4956789;28;20035;-69
2022/03/17 05:22:54;;;;;;;54.15;39.13;;;6.20;73.90;;;4.39;77.44;96646.13;4952207;28;20030;-69
2022/03/17 05:25:20;;;;;;;54.97;41.13;;;6.20;73.70;;;4.39;77.79;96644.34;4952707;28;20070;-69
2022/03/17 05:27:47;;;;;;;57.28;41.38;;;6.20;73.60;;;4.37;77.80;96645.44;4968632;28;20030;-68
2022/03/17 05:30:14;;;;;;;56.58;41.20;;;6.20;73.70;;;4.36;77.60;96651.59;4969150;28;20438;-68
2022/03/17 05:32:41;;;;;;;57.67;42.20;;;6.20;73.70;;;4.37;78.04;96655.84;4953331;28;20119;-70
2022/03/17 05:35:08;;;;;;;54.53;40.08;;;6.20;73.70;;;4.37;77.74;96666.28;4970144;28;20039;-71
2022/03/17 05:37:37;;;;;;;60.40;42.60;;;6.20;73.70;;;4.37;77.63;96663.66;4965691;28;20097;-73
2022/03/17 05:40:09;;;;;;;56.08;40.63;;;6.20;73.70;;;4.37;77.87;96664.50;4969090;28;20038;-72
2022/03/17 05:42:35;;;;;;;56.88;41.20;;;6.20;73.70;;;4.38;77.89;96676.56;4984824;28;20483;-71
2022/03/17 05:45:01;;;;;;;57.50;41.20;;;6.30;73.70;;;4.38;78.16;96680.94;4951780;28;21048;-69
2022/03/17 05:47:35;;;;;;;57.85;41.92;;;6.30;73.80;;;4.40;79.44;96694.66;4974353;28;20066;-71
2022/03/17 05:50:02;;;;;;;55.95;42.67;;;6.30;73.70;;;4.41;78.53;96688.47;4967975;28;20100;-72
2022/03/17 05:52:28;;;;;;;60.92;41.70;;;6.30;73.70;;;4.41;78.62;96685.88;4969012;28;20117;-72
2022/03/17 05:54:54;;;;;;;56.13;41.60;;;6.30;73.70;;;4.42;78.45;96682.31;4932514;28;20074;-71
2022/03/17 05:57:19;;;;;;;59.58;43.78;;;6.30;73.80;;;4.42;78.26;96692.72;4962869;28;20035;-72
2022/03/17 05:59:45;;;;;;;54.67;41.10;;;6.40;73.80;;;4.44;78.13;96691.63;4959241;28;20039;-70
2022/03/17 06:02:11;;;;;;;54.97;41.45;;;6.40;73.80;;;4.48;78.77;96695.59;4977824;28;20038;-66
2022/03/17 06:04:37;;;;;;;54.88;40.80;;;6.50;73.90;;;4.51;78.90;96686.69;4964286;28;20043;-67
2022/03/17 06:07:03;;;;;;;55.58;41.53;;;6.50;73.80;;;4.54;78.80;96696.84;4961596;28;20066;-66
2022/03/17 06:09:29;;;;;;;57.70;41.97;;;6.60;73.70;;;4.57;78.60;96691.38;4972170;28;20114;-66
2022/03/17 06:11:57;;;;;;;59.10;43.22;;;6.60;73.50;;;4.61;78.96;96695.34;4971130;28;20035;-66
2022/03/17 06:14:24;;;;;;;57.78;41.60;;;6.60;73.40;;;4.65;78.84;96691.50;4980198;28;20101;-67
2022/03/17 06:16:50;;;;;;;59.85;41.70;;;6.60;73.20;;;4.69;79.09;96694.66;4960883;28;20031;-67
2022/03/17 06:19:16;;;;;;;59.90;42.17;;;6.70;73.00;;;4.74;78.36;96703.69;4981932;28;20043;-68
2022/03/17 06:21:42;;;;;;;53.42;40.33;;;6.80;73.00;;;4.79;78.96;96711.94;4948870;28;20042;-66
2022/03/17 06:24:08;;;;;;;61.20;41.92;;;6.80;72.70;;;4.86;78.88;96717.41;4959641;28;20054;-66
2022/03/17 06:26:33;;;;;;;68.00;50.50;;;7.00;72.60;;;4.93;78.39;96714.09;4959755;28;20035;-66
2022/03/17 06:28:59;;;;;;;69.53;46.22;;;7.10;72.80;;;5.00;79.40;96708.34;4949854;28;20066;-66
2022/03/17 06:31:25;;;;;;;59.88;43.30;;;7.20;72.40;;;5.06;78.57;96705.19;4967924;28;20093;-66
2022/03/17 06:33:51;;;;;;;54.83;42.25;;;7.20;71.90;;;5.10;78.24;96714.38;4965532;28;20062;-68
2022/03/17 06:36:16;;;;;;;53.03;40.10;;;7.30;71.70;;;5.14;77.95;96697.47;4963263;28;20430;-65
2022/03/17 06:38:42;;;;;;;56.90;42.08;;;7.30;71.60;;;5.16;78.18;96698.97;4963992;28;20522;-67
2022/03/17 06:41:08;;;;;;;55.03;43.08;;;7.30;71.50;;;5.23;78.62;96710.50;4964692;28;20027;-67
2022/03/17 06:43:33;;;;;;;58.28;43.35;;;7.40;71.30;;;5.32;78.53;96708.81;4983262;28;20045;-65
2022/03/17 06:46:00;;;;;;;53.15;39.78;;;7.60;71.10;;;5.41;78.27;96712.38;4949492;28;20159;-66
2022/03/17 06:48:26;;;;;;;54.65;40.50;;;7.60;70.80;;;5.49;77.98;96721.16;4982961;28;20506;-65
2022/03/17 06:50:51;;;;;;;53.92;41.47;;;7.70;70.50;;;5.58;77.66;96721.25;4966434;28;20046;-66
2022/03/17 06:53:17;;;;;;;50.25;39.75;;;7.80;69.90;;;5.66;78.07;96723.94;4967199;28;20039;-67
2022/03/17 06:55:43;;;;;;;50.83;40.75;;;8.00;69.60;;;5.78;77.52;96720.22;4983218;28;20510;-67
2022/03/17 06:58:09;;;;;;;52.83;40.50;;;8.20;69.20;;;5.88;77.03;96723.59;4979694;28;20072;-66
2022/03/17 07:00:34;;;;;;;50.85;40.13;;;8.20;68.40;;;5.98;76.80;96727.03;4966110;28;20407;-66
2022/03/17 07:03:00;;;;;;;48.53;39.67;;;8.40;68.20;;;6.08;77.40;96733.00;4965351;28;20471;-66
2022/03/17 07:05:26;;;;;;;52.85;42.33;;;8.50;68.00;;;6.21;76.88;96731.84;4967354;28;20031;-66
2022/03/17 07:07:51;;;;;;;48.35;41.55;;;8.60;67.50;;;6.31;76.42;96728.22;4967037;28;20034;-67
2022/03/17 07:10:17;;;;;;;49.83;40.75;;;8.80;67.00;;;6.43;75.89;96734.06;4981957;28;20066;-68
2022/03/17 07:12:44;;;;;;;48.53;41.65;;;8.90;66.60;;;6.54;75.64;96730.41;4966492;28;20062;-66
2022/03/17 07:15:10;;;;;;;51.92;39.83;;;8.90;66.60;;;6.63;75.85;96732.97;4965543;28;20534;-68
2022/03/17 07:17:39;;;;;;;47.33;41.78;;;9.10;65.80;;;6.73;75.30;96738.94;4965119;28;20066;-67
2022/03/17 07:20:07;;;;;;;48.42;41.45;;;9.10;65.80;;;6.83;75.22;96741.47;4949749;28;20035;-68
2022/03/17 07:22:33;;;;;;;45.03;40.22;;;9.20;65.40;;;6.89;74.60;96742.66;4948121;28;20137;-67
2022/03/17 07:24:59;;;;;;;46.42;40.83;;;9.20;65.10;;;6.99;73.83;96748.63;4968393;28;20067;-67
2022/03/17 07:27:25;;;;;;;49.97;42.22;;;9.40;65.10;;;7.10;73.55;96750.22;4983031;28;20454;-67
2022/03/17 07:29:51;;;;;;;46.88;41.28;;;9.40;64.90;;;7.14;73.37;96741.91;4965479;28;20518;-66
2022/03/17 07:32:18;;;;;;;45.28;40.30;;;9.50;64.10;;;7.21;72.94;96750.78;4980831;28;20034;-66
2022/03/17 07:34:46;;;;;;;45.08;40.20;;;9.60;64.00;;;7.29;72.89;96760.50;4950695;28;20046;-67
2022/03/17 07:37:11;;;;;;;47.35;39.47;;;9.60;63.90;;;7.32;72.34;96754.97;4965946;28;20046;-70
2022/03/17 07:39:37;;;;;;;44.05;38.35;;;9.60;63.50;;;7.39;72.26;96763.84;4967593;28;20039;-68
2022/03/17 07:42:06;;;;;;;47.17;40.28;;;9.70;63.40;;;7.45;72.35;96765.00;4965656;28;20053;-68
2022/03/17 07:44:32;;;;;;;47.30;39.90;;;9.80;63.70;;;7.47;71.91;96769.16;4961321;28;20110;-68
2022/03/17 07:46:57;;;;;;;47.03;38.72;;;9.80;63.10;;;7.51;71.77;96772.28;4977981;28;20121;-68
2022/03/17 07:49:23;;;;;;;47.03;40.17;;;9.80;63.20;;;7.55;71.69;96765.75;4983864;28;20135;-68
2022/03/17 07:51:49;;;;;;;45.83;39.58;;;9.90;63.00;;;7.59;71.38;96770.53;4967097;28;20038;-69
2022/03/17 07:54:15;;;;;;;46.22;39.35;;;9.80;62.60;;;7.59;71.15;96773.13;4965252;28;20069;-66
2022/03/17 07:56:41;;;;;;;47.17;40.80;;;9.80;62.60;;;7.63;70.86;96771.03;4966398;28;20031;-67
2022/03/17 07:59:07;;;;;;;44.63;39.30;;;9.90;62.70;;;7.70;71.16;96768.63;4965894;28;20031;-69
2022/03/17 08:01:34;;;;;;;43.55;38.85;;;10.00;62.50;;;7.74;70.24;96769.97;4967551;28;20034;-66
2022/03/17 08:03:59;;;;;;;42.90;38.22;;;10.00;61.70;;;7.76;70.24;96773.25;4967807;28;20043;-71
2022/03/17 08:06:28;;;;;;;44.63;38.65;;;9.90;61.80;;;7.78;70.13;96777.34;4936078;28;20141;-69
2022/03/17 08:08:55;;;;;;;43.60;38.88;;;10.10;61.70;;;7.83;70.42;96774.25;4976031;28;20507;-68
2022/03/17 08:11:23;;;;;;;44.85;38.67;;;10.10;61.80;;;7.92;70.05;96782.03;4951709;28;20182;-68
2022/03/17 08:13:50;;;;;;;40.55;36.13;;;10.30;61.50;;;7.99;69.59;96785.66;4966994;28;20038;-67
2022/03/17 08:16:16;;;;;;;42.83;36.63;;;10.30;60.40;;;8.04;69.00;96784.38;4952508;28;20042;-67
2022/03/17 08:18:42;;;;;;;43.13;37.65;;;10.40;60.20;;;8.07;68.95;96786.66;4961821;28;20046;-70
2022/03/17 08:21:08;;;;;;;43.50;36.55;;;10.40;60.10;;;8.09;68.92;96784.72;4962896;28;20027;-66
2022/03/17 08:23:34;;;;;;;42.05;37.45;;;10.30;60.00;;;8.11;68.79;96799.28;4953903;28;20061;-69
2022/03/17 08:25:59;;;;;;;40.63;36.25;;;10.50;60.40;;;8.14;68.46;96787.69;4969252;28;20122;-69
2022/03/17 08:28:26;;;;;;;45.30;38.17;;;10.40;59.90;;;8.18;68.63;96792.47;4968533;28;20518;-69
2022/03/17 08:30:51;;;;;;;48.22;38.85;;;10.60;59.90;;;8.27;68.11;96798.56;4969889;28;20031;-69
2022/03/17 08:33:18;;;;;;;41.75;37.35;;;10.60;59.80;;;8.39;68.08;96797.34;4965078;28;20137;-69
2022/03/17 08:35:43;;;;;;;42.97;36.88;;;10.80;59.50;;;8.42;67.75;96796.22;4960223;28;20031;-69
2022/03/17 08:38:09;;;;;;;43.53;36.83;;;10.70;59.50;;;8.53;68.14;96793.28;4968452;28;20034;-72
2022/03/17 08:40:40;;;;;;;43.60;36.28;;;11.00;59.20;;;8.62;67.14;96791.53;4968864;28;20027;-69
2022/03/17 08:43:09;;;;;;;39.65;35.45;;;11.20;58.30;;;8.71;67.50;96795.78;4965600;28;20030;-67
2022/03/17 08:51:03;;;;;;;39.05;34.78;;;11.20;57.90;;;8.85;66.92;96801.25;4955730;28;20038;-64
2022/03/17 08:53:29;;;;;;;39.60;34.60;;;11.20;58.10;;;8.91;66.46;96807.66;4981061;28;20039;-66
2022/03/17 08:55:55;;;;;;;41.13;36.63;;;11.30;58.20;;;8.96;66.33;96810.59;4967502;28;20035;-68
2022/03/17 08:58:23;;;;;;;39.30;35.00;;;11.40;58.20;;;9.01;66.43;96816.19;4982288;28;20705;-67
2022/03/17 09:00:48;;;;;;;44.78;35.90;;;11.40;58.30;;;9.05;66.68;96814.91;4983474;28;20102;-65
2022/03/17 09:03:14;;;;;;;39.22;34.58;;;11.40;58.00;;;9.06;66.00;96820.97;4964153;28;20469;-72
2022/03/17 09:05:41;;;;;;;40.47;34.80;;;11.20;58.10;;;9.08;65.73;96814.56;4952989;28;20535;-68
2022/03/17 09:08:07;;;;;;;38.25;34.28;;;11.40;58.00;;;9.11;65.56;96823.94;4968215;28;20031;-65
2022/03/17 09:10:36;;;;;;;39.95;34.78;;;11.30;57.80;;;9.07;65.11;96830.50;4983713;28;20500;-66
2022/03/17 09:13:08;;;;;;;40.75;36.35;;;11.20;58.00;;;9.04;66.10;96834.22;4968551;28;20566;-69
2022/03/17 09:15:36;;;;;;;41.42;34.58;;;11.10;58.50;;;9.03;65.05;96840.47;4970085;28;20046;-66
2022/03/17 09:18:02;;;;;;;37.45;33.42;;;11.10;58.20;;;9.05;64.84;96843.78;4967641;28;20038;-70
2022/03/17 09:20:28;;;;;;;37.75;33.70;;;11.20;58.00;;;9.04;65.13;96842.09;4962317;28;20046;-68
2022/03/17 09:22:56;;;;;;;36.80;32.85;;;11.10;58.00;;;9.04;64.72;96842.09;4967723;28;20359;-69
2022/03/17 09:25:24;;;;;;;40.88;32.30;;;11.10;57.60;;;9.00;64.96;96840.78;4950087;28;20043;-68
2022/03/17 09:27:51;;;;;;;38.58;32.22;;;11.10;57.40;;;8.96;65.26;96841.28;4965061;28;20027;-67
2022/03/17 09:30:16;;;;;;;35.75;31.88;;;11.10;57.50;;;8.96;64.39;96839.47;4966612;28;20519;-67
2022/03/17 09:32:43;;;;;;;37.30;32.58;;;11.00;57.50;;;8.91;64.34;96833.88;4967111;28;20097;-67
2022/03/17 09:35:10;;;;;;;37.95;31.83;;;10.90;57.90;;;8.88;65.02;96832.41;4961340;28;20031;-66
2022/03/17 09:37:36;;;;;;;36.90;33.03;;;10.80;58.10;;;8.87;65.34;96832.56;4981198;28;20051;-66
2022/03/17 09:40:02;;;;;;;35.67;31.75;;;10.90;58.40;;;8.86;65.12;96833.56;4956946;28;20033;-68
2022/03/17 09:42:28;;;;;;;35.20;31.50;;;10.90;58.40;;;8.85;65.19;96834.53;4981595;28;20043;-67
2022/03/17 09:44:53;;;;;;;36.85;31.05;;;10.90;58.50;;;8.81;64.90;96833.19;4962850;28;20027;-66
2022/03/17 09:47:21;;;;;;;36.33;31.95;;;10.80;58.40;;;8.79;65.58;96832.53;4968046;28;20090;-68
2022/03/17 09:49:53;;;;;;;37.53;31.40;;;10.90;58.30;;;8.87;65.23;96827.31;4984071;28;20034;-67
2022/03/17 09:52:20;;;;;;;37.50;33.47;;;11.10;58.90;;;8.90;65.20;96837.50;4967138;28;20099;-68
2022/03/17 09:54:47;;;;;;;37.20;32.85;;;11.00;58.40;;;8.92;64.85;96840.78;4950615;28;20031;-66
2022/03/17 09:57:16;;;;;;;37.80;32.55;;;11.10;58.20;;;8.99;65.08;96840.94;4966663;28;20038;-67
2022/03/17 09:59:56;;;;;;;36.80;31.45;;;11.20;58.30;;;9.04;65.13;96849.97;4967407;28;20039;-66
2022/03/17 10:02:22;;;;;;;36.90;31.15;;;11.30;57.80;;;9.07;64.59;96854.09;4966722;28;20053;-66
2022/03/17 10:04:48;;;;;;;35.55;30.30;;;11.30;57.50;;;9.11;64.88;96851.00;4982681;28;20363;-65
2022/03/17 10:07:15;;;;;;;34.47;29.95;;;11.30;57.30;;;9.18;64.69;96854.59;4949890;28;20061;-65
2022/03/17 10:09:40;;;;;;;33.13;29.55;;;11.40;57.40;;;9.21;64.43;96854.28;4935557;28;20035;-66
2022/03/17 10:12:09;;;;;;;35.00;30.75;;;11.30;56.50;;;9.14;64.38;96858.53;4982245;28;20109;-65
2022/03/17 10:14:44;;;;;;;35.10;31.35;;;11.20;56.80;;;9.13;63.24;96854.28;4968261;28;20399;-70
2022/03/17 10:17:41;;;;;;;35.17;31.50;;;11.10;57.20;;;9.19;63.56;96861.50;4949012;28;20094;-67
2022/03/17 10:20:25;;;;;;;34.53;30.55;;;11.30;57.20;;;9.25;63.59;96852.16;4965608;28;20601;-67
2022/03/17 10:22:58;;;;;;;35.63;30.75;;;11.40;56.60;;;9.26;64.06;96864.28;4975319;28;20039;-67
2022/03/17 10:25:26;;;;;;;33.78;29.40;;;11.40;56.60;;;9.27;63.45;96862.47;4966542;28;20041;-67
2022/03/17 10:27:54;;;;;;;32.95;29.40;;;11.40;56.50;;;9.29;63.68;96864.00;4967953;28;20031;-68
2022/03/17 10:30:33;;;;;;;32.65;29.02;;;11.40;56.40;;;9.32;63.37;96857.59;4966775;28;20073;-67
2022/03/17 10:33:14;;;;;;;32.53;29.00;;;11.40;56.20;;;9.36;62.78;96864.16;4979449;28;20519;-67